$60.73 -1.89 (-3.018%) Idacorp Inc - NYSE

Mar. 2, 2015 | 11:50 AM

Insider Transactions

Latest insider trade data based on US Insider Regulatory Filings which are subject to input errors by filers. Insiderslab.com may adjust certain filings for common filing errors on a reasonable effort basis.
Date Name Title Volume Trade Price Holding Change
2/24/2015DAHL RICHARD JDirector1,200$64.1216.90%
2/23/2015Grow Lisa ASr. VP - Power Supply-8,200$63.98-33.40%
2/20/2015Harrington Patrick ACorporate Secretary-609$63.56-5.69%
2/20/2015ANDERSON DARREL TPresident and CEO-5,556$63.56-6.82%
2/20/2015MINOR DANIEL BExec. V.P.-4,630$63.56-8.58%
2/20/2015Blackburn RexSr VP & General Counsel-1,774$63.56-6.45%
2/20/2015Smith Lori DVP & Chief Risk Officer-834$63.56-4.11%
2/20/2015Smith Lori DVP & Chief Risk Officer-118$63.56-11.06%
2/20/2015Said Gregory WVP, Regulatory Affairs-683$63.56-7.17%
2/20/2015Porter Newell VVice President-784$63.56-5.85%
2/20/2015Petersen Kenneth WVP, Corp Cntrlr & Chf Acct Off-744$63.56-6.29%
2/20/2015McDonald Luci KVP - HR & Corp Services-1,014$63.56-4.33%
2/20/2015Krawl Lonnie GVP & Chief Information Officer-327$63.56-4.98%
2/20/2015Keen Steven RSVP, CFO & Treasurer-1,535$63.56-6.89%
2/20/2015Kline WarrenSVP - Customer Operations-851$63.56-7.26%
2/20/2015KEEN J LAMONTDirector-8,609$63.56-8.07%
2/20/2015Grow Lisa ASr. VP - Power Supply-1,534$63.56-6.80%
2/12/2015KEEN J LAMONTDirector-4,000$62.95-3.81%
1/08/2015KEEN J LAMONTDirector-4,000$66.67-3.67%
1/02/2015Smith Lori DVP & Chief Risk Officer-40$66.31-3.96%
1/02/2015Said Gregory WVP, Reg. Affairs (IPC)-253$66.31-2.77%
1/02/2015Porter Newell VVice President-296$66.31-2.28%
1/02/2015Petersen Kenneth WVP, Corp Cntrlr & Chf Acct Off-279$66.31-2.44%
1/02/2015MINOR DANIEL BExec. VP-1,171$66.31-2.25%
1/02/2015McDonald Luci KVP. - Human Resources (IPC)-391$66.31-1.71%
1/02/2015Krawl Lonnie GVP & Chief Information Officer-109$66.31-1.70%
1/02/2015Kline WarrenSVP - Customer Operations-326$66.31-2.90%
1/02/2015Smith Lori DVP & Chief Risk Officer-315$66.31-1.59%
1/02/2015ANDERSON DARREL TPresident & CEO-1,388$66.31-1.76%
1/02/2015Blackburn RexSr VP & General Counsel-684$66.31-2.58%
1/02/2015Grow Lisa ASr. VP - Power Supply (IPC)-592$66.31-2.73%
1/02/2015Harrington Patrick ACorporate Secretary-219$66.31-2.11%
1/02/2015Keen Steven RSVP, CFO & Treasurer-592$66.31-2.77%
12/31/2014MINOR DANIEL BExec. V.P.-2,069$67.78-100.00%
12/11/2014KEEN J LAMONTDirector-4,000$63.62-3.54%
11/13/2014KEEN J LAMONTDirector-4,000$61.47-3.42%
11/04/2014Smith Joan HDirector-238$61.51-2.00%
11/04/2014Petersen Kenneth WVP, Corp Cntrlr & Chf Acct Off1,190$29.7510.42%
11/04/2014Petersen Kenneth WVP, Corp Cntrlr & Chf Acct Off-1,190$61.71-9.44%
9/11/2014KEEN J LAMONTDirector-4,000$55.93-3.20%
8/14/2014KEEN J LAMONTDirector-4,000$54.09-3.10%
8/06/2014Grow Lisa ASr. VP - Power Supply-650$51.93-2.91%
8/04/2014Smith Joan HDirector-200$53.83-1.66%
8/04/2014PACKWOOD JAN BDirector-2,355$52.85-20.74%
6/20/2014MINOR DANIEL BExec. V.P.-2,000$57.35-3.70%
6/09/2014DAHL RICHARD JDirector200$55.372.90%
6/04/2014Kline WarrenSVP - Customer Operations-1,795$54.13-13.77%
6/02/2014KEEN J LAMONTDirector911$54.830.71%
5/09/2014Harrington Patrick ACorporate Secretary-2,000$55.05-16.15%
5/06/2014Smith Joan HDirector-200$54.69-1.65%
4/30/2014KEEN J LAMONTDirector-4,667$56.14-3.52%
3/26/2014Smith Lori DVP & Chief Risk Officer-203$55.61-59.36%
3/11/2014Grow Lisa ASr. VP - Power Supply-1,300$54.97-5.50%
3/10/2014Keen Steven RVP, Finance & Treasurer-1,407$55.27-6.17%
3/03/2014Allred C StephenDirector556$56.197.15%
3/03/2014WILFORD THOMAS JDirector1,334$56.198.01%
2/28/2014WILFORD THOMAS JDirector3,000$30.4821.96%
2/27/2014Said Gregory WVP, Reg. Affairs (IPC)-3,000$55.35-42.94%
2/26/2014ANDERSON DARREL TExec VP-Admin Services & CFO-1,600$55.45-1.98%
2/24/2014TINSTMAN ROBERT ADirector-2,250$56.23-12.15%
2/24/2014TINSTMAN ROBERT ADirector2,250$30.4613.82%
2/21/2014Keen Steven RVP, Finance & Treasurer-767$55.67-4.15%
2/21/2014KEEN J LAMONTPresident & CEO-8,883$55.67-5.69%
2/21/2014Krawl Lonnie GVP & Chief Information Officer-267$55.67-5.55%
2/21/2014MINOR DANIEL BExec. V.P.-2,364$55.67-4.94%
2/21/2014Kline WarrenVP - Customer Operations-720$55.67-6.30%
2/21/2014Blackburn RexSr VP & General Counsel-1,370$55.67-5.79%
2/21/2014ANDERSON DARREL TExec VP-Admin Services & CFO-2,516$55.67-3.63%
2/21/2014Petersen Kenneth WVP, Corp Cntrlr & Chf Acct Off-630$55.67-6.11%
2/21/2014Harrington Patrick ACorporate Secretary-592$55.67-5.07%
2/21/2014Grow Lisa ASr. VP - Power Supply-1,214$55.67-5.76%
2/21/2014McDonald Luci KVP - HR & Corp Services-773$55.67-3.72%
2/21/2014Porter Newell VVP-Delivery Eng & Construction-674$55.67-5.85%
2/21/2014Said Gregory WVP, Reg. Affairs (IPC)-587$55.67-7.31%
2/21/2014Smith Lori DVP & Chief Risk Officer-97$55.67-11.16%
2/21/2014Smith Lori DVP & Chief Risk Officer-708$55.67-3.80%
1/02/2014Harrington Patrick ACorporate Secretary-264$50.84-2.26%
1/02/2014Keen Steven RVP Finance and Treasurer-367$50.84-1.98%
1/02/2014Kline WarrenVP - Customer Operations (IPC)-339$50.84-2.96%
1/02/2014Krawl Lonnie GVP & Chief Information Officer-113$50.84-2.35%
1/02/2014MINOR DANIEL BExec. VP-1,113$50.84-2.32%
1/02/2014Petersen Kenneth WVP, Corp Cntrlr & Chf Acct Off-287$50.84-2.78%
1/02/2014Grow Lisa ASr. VP - Power Supply (IPC)-596$50.84-2.82%
1/02/2014Blackburn RexSr VP & General Counsel-669$50.84-2.82%
1/02/2014ANDERSON DARREL TExec. VP-Admin Services & CFO-1,175$50.84-1.70%
1/02/2014Smith Lori DVP & Chief Risk Officer-332$50.84-1.78%
1/02/2014Smith Lori DVP & Chief Risk Officer-41$50.84-4.73%
1/02/2014KEEN J LAMONTPresident & CEO-2,741$50.84-1.76%
1/02/2014Said Gregory WVP, Reg. Affairs (IPC)-264$50.84-3.28%
1/02/2014Porter Newell VVP-Delivery Eng & Constr (IPC)-312$50.84-2.70%
12/26/2013Smith Lori DVP & Chief Risk Officer-235$52.83-40.80%
9/25/2013Smith Lori DVP & Chief Risk Officer-250$48.88-30.30%
8/05/2013Gribble Dennis CVice President & CIO-3,000$52.48-17.40%
6/25/2013Smith Lori DVP & Chief Risk Officer-265$47.38-24.36%
6/21/2013DAHL RICHARD JDirector500$46.376.44%
5/09/2013MINOR DANIEL BExec. VP-3,000$47.65-5.89%
3/26/2013Smith Joan HDirector3,000$26.4928.40%
3/26/2013Smith Joan HDirector-3,000$47.55-22.12%
3/25/2013Smith Lori DVP & Chief Risk Officer-260$47.50-19.30%
3/15/2013PACKWOOD JAN BDirector-2,800$47.72-21.84%
Data provided by Insiderslab.com. To read detailed Insider Trading Research Report for (IDA), click here.
  • Showing 1-100 of 266 items
  • 1
  • 2
  • 3
  • >>
Trading Center